createdAt,value
2022-09-04T00:01:38.102Z,6.75
2022-09-04T00:04:25.999Z,5.50
2022-09-04T00:07:06.293Z,5.80
2022-09-04T00:09:41.119Z,7.85
2022-09-04T00:12:10.791Z,6.88
2022-09-04T00:14:44.575Z,6.13
2022-09-04T00:17:21.206Z,6.88
2022-09-04T00:19:56.333Z,6.88
2022-09-04T00:22:36.648Z,6.32
2022-09-04T00:25:14.030Z,6.70
2022-09-04T00:27:47.973Z,7.35
2022-09-04T00:30:20.303Z,6.97
2022-09-04T00:32:55.790Z,9.35
2022-09-04T00:35:31.295Z,7.43
2022-09-04T00:38:06.254Z,7.60
2022-09-04T00:40:38.290Z,7.05
2022-09-04T00:43:35.247Z,7.30
2022-09-04T00:46:32.229Z,7.03
2022-09-04T00:49:22.415Z,8.52
2022-09-04T00:52:01.490Z,7.38
2022-09-04T00:54:48.629Z,7.03
2022-09-04T00:57:59.255Z,7.28
2022-09-04T01:00:28.901Z,8.57
2022-09-04T01:03:20.469Z,6.18
2022-09-04T01:06:17.956Z,7.90
2022-09-04T01:09:03.982Z,7.18
2022-09-04T01:11:43.145Z,6.38
2022-09-04T01:14:19.978Z,6.68
2022-09-04T01:16:54.994Z,7.03
2022-09-04T01:19:51.057Z,7.28
2022-09-04T01:22:51.142Z,6.80
2022-09-04T01:25:35.777Z,7.35
2022-09-04T01:28:10.338Z,6.97
2022-09-04T01:30:47.101Z,6.95
2022-09-04T01:33:25.171Z,8.27
2022-09-04T01:36:02.470Z,7.90
2022-09-04T01:38:38.752Z,6.85
2022-09-04T01:41:14.317Z,7.95
2022-09-04T01:43:44.526Z,7.15
2022-09-04T01:46:47.323Z,9.57
2022-09-04T01:49:29.245Z,9.15
2022-09-04T01:52:06.848Z,7.38
2022-09-04T01:54:49.909Z,7.78
2022-09-04T01:57:35.901Z,7.78
2022-09-04T02:00:10.612Z,7.05
2022-09-04T02:02:54.631Z,7.03
2022-09-04T02:05:32.782Z,7.03
2022-09-04T02:08:21.306Z,7.05
2022-09-04T02:10:57.845Z,6.40
2022-09-04T02:13:44.902Z,7.75
2022-09-04T02:16:22.160Z,7.22
2022-09-04T02:19:01.344Z,6.35
2022-09-04T02:21:34.871Z,6.70
2022-09-04T02:24:14.115Z,6.97
2022-09-04T02:26:53.289Z,7.10
2022-09-04T02:29:31.006Z,5.82
2022-09-04T02:32:13.001Z,7.57
2022-09-04T02:34:48.315Z,6.10
2022-09-04T02:37:26.461Z,6.75
2022-09-04T02:40:02.500Z,5.85
2022-09-04T02:42:41.049Z,6.13
2022-09-04T02:45:20.635Z,8.32
2022-09-04T02:47:55.866Z,6.25
2022-09-04T02:50:39.930Z,7.40
2022-09-04T02:53:20.459Z,5.53
2022-09-04T02:56:08.418Z,5.47
2022-09-04T02:58:50.043Z,5.85
2022-09-04T03:01:27.272Z,7.45
2022-09-04T03:04:04.243Z,6.05
2022-09-04T03:06:45.909Z,6.10
2022-09-04T03:09:18.831Z,6.05
2022-09-04T03:11:51.213Z,5.50
2022-09-04T03:14:34.503Z,8.32
2022-09-04T03:17:12.080Z,5.75
2022-09-04T03:19:50.397Z,5.75
2022-09-04T03:22:24.709Z,6.00
2022-09-04T03:25:06.394Z,5.28
2022-09-04T03:27:35.924Z,5.45
2022-09-04T03:30:08.151Z,5.93
2022-09-04T03:32:45.238Z,5.60
2022-09-04T03:35:23.829Z,6.10
2022-09-04T03:38:06.827Z,5.50
2022-09-04T03:40:39.337Z,5.00
2022-09-04T03:43:35.426Z,6.18
2022-09-04T03:46:15.894Z,7.43
2022-09-04T03:48:56.457Z,4.82
2022-09-04T03:51:38.553Z,5.82
2022-09-04T03:54:15.792Z,5.68
2022-09-04T03:57:19.798Z,5.85
2022-09-04T04:00:03.186Z,5.88
2022-09-04T04:03:03.572Z,5.32
2022-09-04T04:05:54.335Z,4.80
2022-09-04T04:08:40.030Z,5.07
2022-09-04T04:11:26.222Z,5.60
2022-09-04T04:14:19.171Z,4.82
2022-09-04T04:17:01.510Z,5.63
2022-09-04T04:19:44.712Z,4.75
2022-09-04T04:22:48.791Z,4.55
2022-09-04T04:25:34.342Z,5.07
2022-09-04T04:28:20.178Z,5.05
2022-09-04T04:30:52.375Z,4.60
2022-09-04T04:33:34.809Z,4.57
2022-09-04T04:36:13.127Z,5.80
2022-09-04T04:38:52.384Z,4.18
2022-09-04T04:41:56.718Z,4.63
2022-09-04T04:44:54.376Z,4.50
2022-09-04T04:47:36.627Z,3.85
2022-09-04T04:50:18.519Z,5.70
2022-09-04T04:53:00.804Z,4.35
2022-09-04T04:55:38.989Z,4.47
2022-09-04T04:58:30.775Z,4.30
2022-09-04T05:01:09.491Z,5.35
2022-09-04T05:03:52.134Z,4.32
2022-09-04T05:06:29.364Z,4.55
2022-09-04T05:09:08.533Z,4.25
2022-09-04T05:11:44.877Z,4.82
2022-09-04T05:14:31.012Z,3.65
2022-09-04T05:17:06.379Z,3.78
2022-09-04T05:19:42.346Z,3.97
2022-09-04T05:22:19.001Z,3.78
2022-09-04T05:25:00.117Z,3.97
2022-09-04T05:27:44.758Z,4.35
2022-09-04T05:30:19.092Z,4.55
2022-09-04T05:32:57.331Z,3.55
2022-09-04T05:35:38.030Z,4.07
2022-09-04T05:38:15.045Z,3.90
2022-09-04T05:40:59.229Z,3.33
2022-09-04T05:43:40.662Z,3.67
2022-09-04T05:46:20.592Z,4.47
2022-09-04T05:49:00.433Z,3.72
2022-09-04T05:51:49.957Z,3.38
2022-09-04T05:54:40.694Z,3.70
2022-09-04T05:57:19.521Z,3.58
2022-09-04T06:00:02.304Z,3.30
2022-09-04T06:03:09.205Z,3.25
2022-09-04T06:06:03.319Z,3.55
2022-09-04T06:09:06.547Z,6.35
2022-09-04T06:12:09.352Z,3.70
2022-09-04T06:14:54.388Z,3.78
2022-09-04T06:17:36.168Z,3.35
2022-09-04T06:20:18.915Z,3.50
2022-09-04T06:23:02.446Z,5.20
2022-09-04T06:25:47.934Z,3.72
2022-09-04T06:28:39.853Z,3.45
2022-09-04T06:31:29.504Z,4.10
2022-09-04T06:34:06.142Z,4.32
2022-09-04T06:36:51.986Z,3.40
2022-09-04T06:39:46.406Z,4.22
2022-09-04T06:42:27.464Z,4.03
2022-09-04T06:45:12.829Z,3.72
2022-09-04T06:47:57.654Z,4.93
2022-09-04T06:50:35.678Z,3.55
2022-09-04T06:53:18.109Z,3.97
2022-09-04T06:55:58.298Z,3.17
2022-09-04T06:59:13.761Z,3.45
2022-09-04T07:01:53.013Z,3.15
2022-09-04T07:04:36.862Z,3.00
2022-09-04T07:07:12.041Z,3.38
2022-09-04T07:09:47.365Z,4.00
2022-09-04T07:12:42.795Z,3.20
2022-09-04T07:15:58.780Z,4.20
2022-09-04T07:18:55.449Z,4.15
2022-09-04T07:21:35.078Z,3.72
2022-09-04T07:24:08.757Z,3.60
2022-09-04T07:26:49.852Z,3.30
2022-09-04T07:29:34.642Z,3.15
2022-09-04T07:32:08.538Z,3.10
2022-09-04T07:34:45.180Z,3.10
2022-09-04T07:37:27.794Z,3.33
2022-09-04T07:40:08.342Z,3.78
2022-09-04T07:42:46.197Z,2.88
2022-09-04T07:45:26.233Z,2.80
2022-09-04T07:48:05.252Z,2.60
2022-09-04T07:50:38.062Z,3.17
2022-09-04T07:53:20.825Z,3.08
2022-09-04T07:55:51.586Z,6.72
2022-09-04T07:58:50.354Z,7.05
2022-09-04T08:01:45.345Z,4.85
2022-09-04T08:05:02.534Z,2.70
2022-09-04T08:08:04.667Z,5.40
2022-09-04T08:10:38.440Z,4.47
2022-09-04T08:13:25.721Z,2.80
2022-09-04T08:16:06.093Z,2.88
2022-09-04T08:18:54.498Z,4.40
2022-09-04T08:21:29.619Z,4.72
2022-09-04T08:24:44.461Z,4.07
2022-09-04T08:27:28.653Z,3.65
2022-09-04T08:30:06.470Z,2.92
2022-09-04T08:33:10.101Z,4.07
2022-09-04T08:35:48.836Z,3.28
2022-09-04T08:38:36.146Z,2.85
2022-09-04T08:41:54.914Z,2.95
2022-09-04T08:45:23.343Z,3.88
2022-09-04T08:48:19.198Z,2.85
2022-09-04T08:51:18.117Z,2.30
2022-09-04T08:54:26.136Z,2.40
2022-09-04T08:57:20.542Z,4.10
2022-09-04T09:00:05.102Z,4.95
2022-09-04T09:03:10.543Z,4.93
2022-09-04T09:06:16.533Z,7.97
2022-09-04T09:09:15.573Z,7.80
2022-09-04T09:12:20.829Z,5.40
2022-09-04T09:15:15.246Z,4.43
2022-09-04T09:18:01.554Z,4.80
2022-09-04T09:20:40.358Z,5.22
2022-09-04T09:23:23.662Z,4.90
2022-09-04T09:25:56.404Z,5.35
2022-09-04T09:28:58.316Z,5.20
2022-09-04T09:32:12.216Z,6.68
2022-09-04T09:35:22.290Z,4.40
2022-09-04T09:38:23.846Z,4.15
2022-09-04T09:41:32.557Z,3.95
2022-09-04T09:44:52.421Z,4.55
2022-09-04T09:48:11.419Z,4.80
2022-09-04T09:50:59.791Z,4.35
2022-09-04T09:54:00.068Z,5.00
2022-09-04T09:57:07.324Z,5.13
2022-09-04T09:59:54.151Z,4.97
2022-09-04T10:02:52.762Z,3.80
2022-09-04T10:05:45.692Z,5.35
2022-09-04T10:08:35.609Z,3.47
2022-09-04T10:11:29.430Z,3.53
2022-09-04T10:14:36.891Z,3.63
2022-09-04T10:17:48.234Z,3.90
2022-09-04T10:20:55.387Z,2.95
2022-09-04T10:23:47.573Z,3.35
2022-09-04T10:26:49.855Z,3.47
2022-09-04T10:29:49.397Z,5.45
2022-09-04T10:32:55.075Z,2.88
2022-09-04T10:35:26.024Z,2.58
2022-09-04T10:38:10.382Z,3.97
2022-09-04T10:40:51.553Z,2.55
2022-09-04T10:43:53.351Z,14.00
2022-09-04T10:46:27.457Z,4.15
2022-09-04T10:49:26.323Z,4.80
2022-09-04T10:52:22.375Z,2.50
2022-09-04T10:55:26.664Z,2.95
2022-09-04T10:58:20.142Z,3.38
2022-09-04T11:01:13.820Z,3.10
2022-09-04T11:04:00.966Z,2.65
2022-09-04T11:06:55.378Z,4.18
2022-09-04T11:09:36.690Z,2.70
2022-09-04T11:12:31.633Z,4.18
2022-09-04T11:15:45.117Z,2.53
2022-09-04T11:18:51.527Z,3.05
2022-09-04T11:21:58.970Z,3.20
2022-09-04T11:25:04.256Z,2.72
2022-09-04T11:28:01.925Z,2.53
2022-09-04T11:30:48.105Z,2.47
2022-09-04T11:33:53.131Z,2.97
2022-09-04T11:36:50.628Z,2.40
2022-09-04T11:39:39.836Z,2.53
2022-09-04T11:42:31.057Z,2.33
2022-09-04T11:45:27.040Z,3.00
2022-09-04T11:48:28.997Z,2.10
2022-09-04T11:51:16.463Z,2.00
2022-09-04T11:54:21.011Z,2.45
2022-09-04T11:57:05.222Z,2.97
2022-09-04T11:59:55.383Z,2.67
2022-09-04T12:02:50.794Z,2.50
2022-09-04T12:05:39.227Z,3.88
2022-09-04T12:08:23.724Z,2.10
2022-09-04T12:11:32.002Z,2.40
2022-09-04T12:14:15.385Z,2.20
2022-09-04T12:17:25.657Z,1.75
2022-09-04T12:20:13.984Z,3.55
2022-09-04T12:23:11.225Z,2.33
2022-09-04T12:26:28.027Z,1.88
2022-09-04T12:29:35.012Z,4.38
2022-09-04T12:32:28.682Z,3.17
2022-09-04T12:35:19.326Z,4.07
2022-09-04T12:38:17.024Z,1.38
2022-09-04T12:40:56.078Z,1.63
2022-09-04T12:43:38.781Z,1.52
2022-09-04T12:46:21.615Z,1.88
2022-09-04T12:49:03.325Z,1.20
2022-09-04T12:51:43.580Z,1.40
2022-09-04T12:54:27.753Z,1.92
2022-09-04T12:57:15.181Z,1.60
2022-09-04T12:59:55.622Z,1.50
2022-09-04T13:02:35.614Z,1.60
2022-09-04T13:05:26.986Z,3.70
2022-09-04T13:08:07.718Z,1.60
2022-09-04T13:10:46.826Z,2.90
2022-09-04T13:13:25.139Z,1.90
2022-09-04T13:16:00.429Z,1.45
2022-09-04T13:18:46.629Z,1.25
2022-09-04T13:21:26.947Z,1.80
2022-09-04T13:24:10.213Z,1.77
2022-09-04T13:27:00.632Z,1.23
2022-09-04T13:29:40.310Z,1.70
2022-09-04T13:32:26.215Z,1.88
2022-09-04T13:35:14.800Z,1.73
2022-09-04T13:38:03.316Z,1.33
2022-09-04T13:40:43.180Z,2.25
2022-09-04T13:43:54.453Z,1.38
2022-09-04T13:46:30.109Z,2.13
2022-09-04T13:49:04.865Z,2.35
2022-09-04T13:51:43.086Z,1.95
2022-09-04T13:54:17.894Z,1.33
2022-09-04T13:56:51.888Z,1.90
2022-09-04T13:59:23.848Z,2.08
2022-09-04T14:01:56.135Z,5.07
2022-09-04T14:04:28.942Z,1.92
2022-09-04T14:07:06.161Z,1.23
2022-09-04T14:09:40.200Z,1.38
2022-09-04T14:12:38.536Z,1.65
2022-09-04T14:15:39.720Z,2.33
2022-09-04T14:18:25.497Z,1.60
2022-09-04T14:21:01.555Z,2.33
2022-09-04T14:23:47.164Z,4.32
2022-09-04T14:26:27.518Z,1.63
2022-09-04T14:29:05.100Z,3.97
2022-09-04T14:31:46.630Z,1.55
2022-09-04T14:34:27.730Z,1.73
2022-09-04T14:37:08.134Z,1.73
2022-09-04T14:39:46.089Z,1.75
2022-09-04T14:42:28.463Z,1.98
2022-09-04T14:45:09.513Z,1.95
2022-09-04T14:47:45.334Z,2.10
2022-09-04T14:50:16.726Z,2.35
2022-09-04T14:52:49.499Z,1.95
2022-09-04T14:55:26.112Z,1.30
2022-09-04T14:58:00.765Z,1.33
2022-09-04T15:00:29.867Z,1.70
2022-09-04T15:03:06.365Z,1.48
2022-09-04T15:05:39.768Z,1.40
2022-09-04T15:08:09.836Z,2.08
2022-09-04T15:10:49.913Z,1.58
2022-09-04T15:13:52.928Z,1.80
2022-09-04T15:16:28.222Z,1.73
2022-09-04T15:19:04.998Z,1.40
2022-09-04T15:21:40.497Z,1.80
2022-09-04T15:24:16.574Z,2.22
2022-09-04T15:26:51.803Z,1.42
2022-09-04T15:29:28.114Z,1.85
2022-09-04T15:32:03.056Z,1.30
2022-09-04T15:34:32.328Z,1.30
2022-09-04T15:37:22.104Z,2.13
2022-09-04T15:39:58.906Z,1.50
2022-09-04T15:42:36.943Z,2.70
2022-09-04T15:45:12.799Z,1.70
2022-09-04T15:48:13.890Z,2.03
2022-09-04T15:51:01.481Z,1.50
2022-09-04T15:53:33.881Z,1.35
2022-09-04T15:56:10.354Z,1.48
2022-09-04T15:58:49.245Z,2.08
2022-09-04T16:01:22.644Z,1.60
2022-09-04T16:04:01.284Z,1.48
2022-09-04T16:06:32.840Z,1.60
2022-09-04T16:09:05.735Z,1.52
2022-09-04T16:11:37.399Z,1.50
2022-09-04T16:14:17.252Z,1.50
2022-09-04T16:16:53.108Z,2.33
2022-09-04T16:19:30.765Z,2.50
2022-09-04T16:22:08.329Z,2.08
2022-09-04T16:24:43.657Z,2.28
2022-09-04T16:27:14.976Z,2.63
2022-09-04T16:29:51.103Z,2.20
2022-09-04T16:32:22.851Z,2.15
2022-09-04T16:34:56.950Z,1.60
2022-09-04T16:37:31.072Z,2.22
2022-09-04T16:40:13.703Z,1.70
2022-09-04T16:42:50.041Z,1.73
2022-09-04T16:45:24.677Z,2.05
2022-09-04T16:47:56.605Z,1.92
2022-09-04T16:50:31.161Z,1.40
2022-09-04T16:53:13.583Z,1.40
2022-09-04T16:55:58.714Z,1.67
2022-09-04T16:58:43.930Z,2.28
2022-09-04T17:01:18.737Z,1.52
2022-09-04T17:04:14.752Z,1.52
2022-09-04T17:06:57.365Z,1.70
2022-09-04T17:09:32.081Z,2.17
2022-09-04T17:12:17.342Z,1.33
2022-09-04T17:14:52.538Z,2.05
2022-09-04T17:17:31.607Z,4.05
2022-09-04T17:20:04.506Z,3.25
2022-09-04T17:28:34.036Z,4.07
2022-09-04T17:29:12.103Z,2.25
2022-09-04T17:29:12.271Z,2.35
2022-09-04T17:31:38.329Z,1.70
2022-09-04T17:40:41.015Z,1.52
2022-09-04T17:40:42.212Z,1.63
2022-09-04T17:40:57.533Z,1.75
2022-09-04T17:43:21.760Z,1.88
2022-09-04T17:46:06.576Z,2.00
2022-09-04T17:48:42.822Z,1.83
2022-09-04T17:51:27.060Z,1.50
2022-09-04T17:53:58.611Z,1.55
2022-09-04T17:56:31.710Z,2.08
2022-09-04T17:59:06.269Z,1.92
2022-09-04T18:01:43.050Z,3.47
2022-09-04T18:04:26.724Z,2.28
2022-09-04T18:07:46.327Z,1.63
2022-09-04T18:10:04.266Z,3.28
2022-09-04T18:12:40.842Z,3.20
2022-09-04T18:15:32.493Z,1.98
2022-09-04T18:18:11.834Z,2.00
2022-09-04T18:20:46.217Z,2.63
2022-09-04T18:23:52.893Z,2.25
2022-09-04T18:26:40.473Z,2.40
2022-09-04T18:30:42.930Z,2.72
2022-09-04T18:37:08.730Z,3.20
2022-09-04T18:37:20.411Z,2.20
2022-09-04T18:38:20.387Z,2.70
2022-09-04T18:43:08.813Z,2.97
2022-09-04T18:50:21.589Z,3.15
2022-09-04T18:50:35.128Z,3.33
2022-09-04T18:50:44.668Z,3.53
2022-09-04T18:52:19.426Z,2.40
2022-09-04T18:54:52.839Z,2.25
2022-09-04T18:57:31.765Z,2.33
2022-09-04T19:00:08.867Z,2.00
2022-09-04T19:02:51.410Z,2.45
2022-09-04T19:05:24.539Z,3.70
2022-09-04T19:07:56.681Z,3.83
2022-09-04T19:10:28.027Z,2.60
2022-09-04T19:13:02.932Z,2.72
2022-09-04T19:15:53.639Z,2.40
2022-09-04T19:18:31.281Z,2.58
2022-09-04T19:21:19.456Z,2.97
2022-09-04T19:23:53.537Z,2.30
2022-09-04T19:26:28.786Z,2.70
2022-09-04T19:29:07.866Z,2.20
2022-09-04T19:31:41.662Z,5.03
2022-09-04T19:34:19.201Z,3.30
2022-09-04T19:36:53.442Z,2.50
2022-09-04T19:46:00.059Z,4.75
2022-09-04T19:46:06.529Z,4.38
2022-09-04T19:46:25.009Z,3.28
2022-09-04T19:48:26.470Z,2.60
2022-09-04T19:53:21.712Z,3.40
2022-09-04T19:53:58.059Z,2.50
2022-09-04T19:56:31.452Z,2.53
2022-09-04T19:59:06.598Z,2.42
2022-09-04T20:01:46.218Z,2.65
2022-09-04T20:04:25.872Z,2.20
2022-09-04T20:07:02.483Z,2.45
2022-09-04T20:09:38.344Z,2.42
2022-09-04T20:12:19.881Z,2.40
2022-09-04T20:14:55.116Z,3.53
2022-09-04T20:17:47.521Z,3.95
2022-09-04T20:20:21.258Z,3.90
2022-09-04T20:22:55.047Z,2.67
2022-09-04T20:25:42.688Z,3.20
2022-09-04T20:28:27.257Z,7.10
2022-09-04T20:31:35.842Z,3.10
2022-09-04T20:34:16.758Z,3.90
2022-09-04T20:36:51.140Z,2.92
2022-09-04T20:39:24.466Z,2.50
2022-09-04T20:41:57.494Z,4.40
2022-09-04T20:44:31.860Z,2.92
2022-09-04T20:52:44.804Z,3.95
2022-09-04T20:52:50.062Z,2.60
2022-09-04T20:53:07.513Z,2.75
2022-09-04T20:55:55.754Z,2.50
2022-09-04T21:03:13.597Z,2.45
2022-09-04T21:03:22.692Z,4.22
2022-09-04T21:04:43.482Z,3.53
2022-09-04T21:07:23.657Z,5.05
2022-09-04T21:10:00.558Z,3.70
2022-09-04T21:12:36.346Z,2.75
2022-09-04T21:15:13.548Z,2.70
2022-09-04T21:17:58.166Z,3.10
2022-09-04T21:21:00.225Z,2.65
2022-09-04T21:24:12.227Z,4.13
2022-09-04T21:27:02.331Z,2.42
2022-09-04T21:29:50.377Z,2.83
2022-09-04T21:32:32.965Z,3.15
2022-09-04T21:35:13.258Z,2.80
2022-09-04T21:37:51.973Z,2.20
2022-09-04T21:41:00.472Z,2.22
2022-09-04T21:44:20.445Z,2.60
2022-09-04T21:47:21.470Z,4.28
2022-09-04T21:50:30.229Z,2.40
2022-09-04T21:53:24.064Z,3.08
2022-09-04T22:02:31.375Z,2.47
2022-09-04T22:02:46.084Z,3.75
2022-09-04T22:02:51.309Z,3.10
2022-09-04T22:05:26.805Z,4.38
2022-09-04T22:12:13.144Z,2.33
2022-09-04T22:13:38.283Z,6.60
2022-09-04T22:14:10.839Z,2.47
2022-09-04T22:17:04.473Z,2.38
2022-09-04T22:19:48.105Z,2.28
2022-09-04T22:22:47.500Z,2.50
2022-09-04T22:25:45.544Z,2.75
2022-09-04T22:29:01.445Z,2.53
2022-09-04T22:32:04.095Z,3.95
2022-09-04T22:35:16.341Z,3.67
2022-09-04T22:38:16.836Z,2.85
2022-09-04T22:40:57.100Z,2.67
2022-09-04T22:43:27.885Z,2.70
2022-09-04T22:46:44.599Z,2.63
2022-09-04T22:49:43.362Z,2.40
2022-09-04T22:52:48.889Z,2.47
2022-09-04T22:56:23.370Z,4.25
2022-09-04T22:58:52.496Z,2.15
2022-09-04T23:01:46.595Z,2.58
2022-09-04T23:04:31.187Z,2.42
2022-09-04T23:10:15.821Z,2.60
2022-09-04T23:13:56.345Z,2.80
2022-09-04T23:14:09.480Z,3.47
2022-09-04T23:17:08.346Z,4.07
2022-09-04T23:26:38.423Z,2.20
2022-09-04T23:26:42.064Z,2.85
2022-09-04T23:27:00.071Z,3.80
2022-09-04T23:29:46.357Z,3.00
2022-09-04T23:32:48.503Z,2.60
2022-09-04T23:35:28.427Z,2.67
2022-09-04T23:38:25.017Z,2.50
2022-09-04T23:40:55.976Z,3.05
2022-09-04T23:44:08.161Z,2.50
2022-09-04T23:46:51.815Z,4.07
2022-09-04T23:49:41.342Z,2.20
2022-09-04T23:52:18.901Z,2.50
2022-09-04T23:55:15.074Z,2.85
2022-09-04T23:57:54.233Z,3.58
